Home PIREPS Pireps

Flight WIN1022

  • Submitted By: Vincent Fourni
  • Departure Airport: Bruxelles National (EBBR)
  • Arrival Airport: Trondheim Vaernes (ENVA)
  • Aircraft: YOUR CHOICE (YC)
  • Flight Time: 02.20
  • Date Submitted: 06/12/2017
  • Status: Accepted
Flight Details
Gross Revenue:
(25 load / € 0.00 per unit
€ 0.00
Fuel Cost:
(6312 fuel used @ 5.1 / unit)
€ 32,191.20

Additional Log Information:

View Log

Aircraft Used in flight is PMDG 737-800NGX Brussels Airlines Winglets
14:54 Brakes are On
14:54 Brakes are Released
14:56 Brakes are On
14:59 Brakes are Released
14:59 Brakes are On
14:59 Brakes are Released
15:03 You Took off @ 173 Knots and Flaps at Position 3
Departure Weather
EBBR 061350Z 22008KT 9999 BKN040 07/05 Q1030 NOSIGrn
15:03 Landing Gear Up @ 182 Knots and 400 Feet
15:04 Below FL100 you need to turn on the landing lights
16:09 Paused
16:09 Unpaused
16:59 Below 10000 feet you are not allowed to go over 250 knots
17:10 Paused
17:11 Unpaused
17:12 Landing Gear Down @ 187 Knots and 3670 Feet
17:16 You Landed @ 119 Knots and with -350 Vertical Speed
Arrival Weather
ENVA 061550Z 13006KT CAVOK M02/M03 Q1005 NOSIG RMK WIND 670FT 12006KTrn
17:16 Paused
17:19 Unpaused
17:19 Paused
17:19 Unpaused
17:19 Brakes are On
17:20 Brussels Bel-Track1.0.1.2

Route Map

Corporate About Us Our Team Vacancies Information Fleet Route Network Rules and Regulations Operations Flight Schedules Event Center Tours Partners IVAO Vatsim Acars dev FSCB

fb Users Online No pilots online!
0 Pilot(s) and 119 Guest(s) Online
CMS by phpVMS - Design by Crazycreatives.com - Copyright © 2020 - Brussels Airlines Virtual